sensor_id;sensor_type;location;lat;lon;timestamp;temperature;humidity
20590;DHT22;10453;50.810;12.540;2024-03-08T00:02:33;-1.20;99.90
20590;DHT22;10453;50.810;12.540;2024-03-08T00:06:51;-1.20;99.90
20590;DHT22;10453;50.810;12.540;2024-03-08T00:11:08;-1.20;99.90
20590;DHT22;10453;50.810;12.540;2024-03-08T00:15:26;-1.20;99.90
20590;DHT22;10453;50.810;12.540;2024-03-08T00:19:43;-1.20;99.90
20590;DHT22;10453;50.810;12.540;2024-03-08T00:24:00;-1.20;99.90
20590;DHT22;10453;50.810;12.540;2024-03-08T00:28:18;-1.20;99.90
20590;DHT22;10453;50.810;12.540;2024-03-08T00:32:36;-1.30;99.90
20590;DHT22;10453;50.810;12.540;2024-03-08T00:36:54;-1.40;99.90
20590;DHT22;10453;50.810;12.540;2024-03-08T00:41:12;-1.40;99.90
20590;DHT22;10453;50.810;12.540;2024-03-08T00:45:30;-1.50;99.90
20590;DHT22;10453;50.810;12.540;2024-03-08T00:49:47;-1.60;99.90
20590;DHT22;10453;50.810;12.540;2024-03-08T00:54:05;-1.50;99.90
20590;DHT22;10453;50.810;12.540;2024-03-08T00:58:24;-1.50;99.90
20590;DHT22;10453;50.810;12.540;2024-03-08T01:02:41;-1.60;99.90
20590;DHT22;10453;50.810;12.540;2024-03-08T01:06:59;-1.60;99.90
20590;DHT22;10453;50.810;12.540;2024-03-08T01:11:16;-1.70;99.90
20590;DHT22;10453;50.810;12.540;2024-03-08T01:15:34;-1.70;99.90
20590;DHT22;10453;50.810;12.540;2024-03-08T01:19:51;-1.70;99.90
20590;DHT22;10453;50.810;12.540;2024-03-08T01:24:10;-1.70;99.90
20590;DHT22;10453;50.810;12.540;2024-03-08T01:28:27;-1.70;99.90
20590;DHT22;10453;50.810;12.540;2024-03-08T01:32:45;-1.70;99.90
20590;DHT22;10453;50.810;12.540;2024-03-08T01:37:03;-1.70;99.90
20590;DHT22;10453;50.810;12.540;2024-03-08T01:41:21;-1.80;99.90
20590;DHT22;10453;50.810;12.540;2024-03-08T01:45:38;-1.80;99.90
20590;DHT22;10453;50.810;12.540;2024-03-08T01:49:55;-1.90;99.90
20590;DHT22;10453;50.810;12.540;2024-03-08T01:54:15;-1.90;99.90
20590;DHT22;10453;50.810;12.540;2024-03-08T01:58:34;-1.90;99.90
20590;DHT22;10453;50.810;12.540;2024-03-08T02:02:54;-1.90;99.90
20590;DHT22;10453;50.810;12.540;2024-03-08T02:07:12;-0.90;99.90
20590;DHT22;10453;50.810;12.540;2024-03-08T02:11:29;-1.90;99.90
20590;DHT22;10453;50.810;12.540;2024-03-08T02:15:53;-2.00;99.90
20590;DHT22;10453;50.810;12.540;2024-03-08T02:20:11;-2.10;99.90
20590;DHT22;10453;50.810;12.540;2024-03-08T02:24:31;-2.10;99.90
20590;DHT22;10453;50.810;12.540;2024-03-08T02:28:49;-2.10;99.90
20590;DHT22;10453;50.810;12.540;2024-03-08T02:33:07;-2.20;99.90
20590;DHT22;10453;50.810;12.540;2024-03-08T02:37:26;-2.20;99.90
20590;DHT22;10453;50.810;12.540;2024-03-08T02:41:45;-2.20;99.90
20590;DHT22;10453;50.810;12.540;2024-03-08T02:46:02;-2.20;99.90
20590;DHT22;10453;50.810;12.540;2024-03-08T02:50:20;-2.20;99.90
20590;DHT22;10453;50.810;12.540;2024-03-08T02:54:39;-2.20;99.90
20590;DHT22;10453;50.810;12.540;2024-03-08T02:58:57;-2.20;99.90
20590;DHT22;10453;50.810;12.540;2024-03-08T03:03:14;-2.20;99.90
20590;DHT22;10453;50.810;12.540;2024-03-08T03:07:33;-2.20;99.90
20590;DHT22;10453;50.810;12.540;2024-03-08T03:11:50;-2.30;99.90
20590;DHT22;10453;50.810;12.540;2024-03-08T03:16:09;-2.20;99.90
20590;DHT22;10453;50.810;12.540;2024-03-08T03:20:27;-2.20;99.90
20590;DHT22;10453;50.810;12.540;2024-03-08T03:24:50;-2.30;99.90
20590;DHT22;10453;50.810;12.540;2024-03-08T03:29:09;-2.30;99.90
20590;DHT22;10453;50.810;12.540;2024-03-08T03:33:26;-2.30;99.90
20590;DHT22;10453;50.810;12.540;2024-03-08T03:37:43;-2.30;99.90
20590;DHT22;10453;50.810;12.540;2024-03-08T03:42:19;-2.30;99.90
20590;DHT22;10453;50.810;12.540;2024-03-08T03:46:36;-2.40;99.90
20590;DHT22;10453;50.810;12.540;2024-03-08T03:50:53;-2.50;99.90
20590;DHT22;10453;50.810;12.540;2024-03-08T03:55:11;-2.60;99.90
20590;DHT22;10453;50.810;12.540;2024-03-08T03:59:30;-2.60;99.90
20590;DHT22;10453;50.810;12.540;2024-03-08T04:03:48;-2.60;99.90
20590;DHT22;10453;50.810;12.540;2024-03-08T04:08:06;-2.60;99.90
20590;DHT22;10453;50.810;12.540;2024-03-08T04:12:23;-2.50;99.90
20590;DHT22;10453;50.810;12.540;2024-03-08T04:16:40;-2.60;99.90
20590;DHT22;10453;50.810;12.540;2024-03-08T04:21:00;-2.60;99.90
20590;DHT22;10453;50.810;12.540;2024-03-08T04:25:19;-2.70;99.90
20590;DHT22;10453;50.810;12.540;2024-03-08T04:29:37;-2.70;99.90
20590;DHT22;10453;50.810;12.540;2024-03-08T04:33:55;-2.60;99.90
20590;DHT22;10453;50.810;12.540;2024-03-08T04:38:12;-2.70;99.90
20590;DHT22;10453;50.810;12.540;2024-03-08T04:42:30;-2.70;99.90
20590;DHT22;10453;50.810;12.540;2024-03-08T04:46:50;-2.70;99.90
20590;DHT22;10453;50.810;12.540;2024-03-08T04:51:07;-2.70;99.90
20590;DHT22;10453;50.810;12.540;2024-03-08T04:55:25;-2.70;99.90
20590;DHT22;10453;50.810;12.540;2024-03-08T04:59:42;-2.80;99.90
20590;DHT22;10453;50.810;12.540;2024-03-08T05:04:00;-2.70;99.90
20590;DHT22;10453;50.810;12.540;2024-03-08T05:08:22;-2.80;99.90
20590;DHT22;10453;50.810;12.540;2024-03-08T05:12:39;-2.80;99.90
20590;DHT22;10453;50.810;12.540;2024-03-08T05:16:57;-2.90;99.90
20590;DHT22;10453;50.810;12.540;2024-03-08T05:21:14;-2.80;99.90
20590;DHT22;10453;50.810;12.540;2024-03-08T05:25:34;-2.80;99.90
20590;DHT22;10453;50.810;12.540;2024-03-08T05:29:52;-2.80;99.90
20590;DHT22;10453;50.810;12.540;2024-03-08T05:34:09;-2.80;99.90
20590;DHT22;10453;50.810;12.540;2024-03-08T05:38:27;-2.80;99.90
20590;DHT22;10453;50.810;12.540;2024-03-08T05:42:45;-2.80;99.90
20590;DHT22;10453;50.810;12.540;2024-03-08T05:47:03;-2.80;99.90
20590;DHT22;10453;50.810;12.540;2024-03-08T05:51:23;-2.80;99.90
20590;DHT22;10453;50.810;12.540;2024-03-08T05:55:41;-2.80;99.90
20590;DHT22;10453;50.810;12.540;2024-03-08T05:59:58;-2.80;99.90
20590;DHT22;10453;50.810;12.540;2024-03-08T06:04:16;-2.80;99.90
20590;DHT22;10453;50.810;12.540;2024-03-08T06:08:35;-2.70;99.90
20590;DHT22;10453;50.810;12.540;2024-03-08T06:12:52;-2.70;99.90
20590;DHT22;10453;50.810;12.540;2024-03-08T06:17:10;-2.60;99.90
20590;DHT22;10453;50.810;12.540;2024-03-08T06:21:28;-2.60;99.90
20590;DHT22;10453;50.810;12.540;2024-03-08T06:25:45;-2.50;99.90
20590;DHT22;10453;50.810;12.540;2024-03-08T06:30:03;-2.40;99.90
20590;DHT22;10453;50.810;12.540;2024-03-08T06:34:22;-2.40;99.90
20590;DHT22;10453;50.810;12.540;2024-03-08T06:38:39;-2.30;99.90
20590;DHT22;10453;50.810;12.540;2024-03-08T06:42:59;-2.20;99.90
20590;DHT22;10453;50.810;12.540;2024-03-08T06:47:17;-2.10;99.90
20590;DHT22;10453;50.810;12.540;2024-03-08T06:51:34;-2.10;99.90
20590;DHT22;10453;50.810;12.540;2024-03-08T06:55:52;-2.00;99.90
20590;DHT22;10453;50.810;12.540;2024-03-08T07:00:10;-1.90;99.90
20590;DHT22;10453;50.810;12.540;2024-03-08T07:04:29;-1.70;99.90
20590;DHT22;10453;50.810;12.540;2024-03-08T07:08:46;-1.60;99.90
20590;DHT22;10453;50.810;12.540;2024-03-08T07:13:06;-1.40;99.90
20590;DHT22;10453;50.810;12.540;2024-03-08T07:17:23;-1.20;99.90
20590;DHT22;10453;50.810;12.540;2024-03-08T07:21:41;-1.10;99.90
20590;DHT22;10453;50.810;12.540;2024-03-08T07:25:59;-0.90;99.90
20590;DHT22;10453;50.810;12.540;2024-03-08T07:30:18;-0.70;99.90
20590;DHT22;10453;50.810;12.540;2024-03-08T07:34:54;-0.60;99.90
20590;DHT22;10453;50.810;12.540;2024-03-08T07:39:12;-0.30;99.90
20590;DHT22;10453;50.810;12.540;2024-03-08T07:43:30;-0.20;99.90
20590;DHT22;10453;50.810;12.540;2024-03-08T07:47:48;0.10;99.90
20590;DHT22;10453;50.810;12.540;2024-03-08T07:52:05;0.40;99.90
20590;DHT22;10453;50.810;12.540;2024-03-08T07:56:24;0.70;99.90
20590;DHT22;10453;50.810;12.540;2024-03-08T08:00:42;1.00;99.90
20590;DHT22;10453;50.810;12.540;2024-03-08T08:05:00;1.40;99.90
20590;DHT22;10453;50.810;12.540;2024-03-08T08:09:17;1.90;99.90
20590;DHT22;10453;50.810;12.540;2024-03-08T08:13:45;2.20;99.90
20590;DHT22;10453;50.810;12.540;2024-03-08T08:18:02;2.60;99.90
20590;DHT22;10453;50.810;12.540;2024-03-08T08:22:23;2.70;99.90
20590;DHT22;10453;50.810;12.540;2024-03-08T08:26:40;3.10;99.90
20590;DHT22;10453;50.810;12.540;2024-03-08T08:30:58;3.40;99.90
20590;DHT22;10453;50.810;12.540;2024-03-08T08:35:16;3.80;99.90
20590;DHT22;10453;50.810;12.540;2024-03-08T08:39:35;4.20;99.90
20590;DHT22;10453;50.810;12.540;2024-03-08T08:43:52;4.80;99.90
20590;DHT22;10453;50.810;12.540;2024-03-08T08:48:24;5.20;99.90
20590;DHT22;10453;50.810;12.540;2024-03-08T08:52:42;5.70;99.90
20590;DHT22;10453;50.810;12.540;2024-03-08T08:57:03;5.90;99.90
20590;DHT22;10453;50.810;12.540;2024-03-08T09:01:24;6.20;99.90
20590;DHT22;10453;50.810;12.540;2024-03-08T09:05:42;6.40;99.90
20590;DHT22;10453;50.810;12.540;2024-03-08T09:10:02;6.50;99.90
20590;DHT22;10453;50.810;12.540;2024-03-08T09:14:34;6.70;99.90
20590;DHT22;10453;50.810;12.540;2024-03-08T09:18:51;7.00;99.90
20590;DHT22;10453;50.810;12.540;2024-03-08T09:23:09;7.00;99.90
20590;DHT22;10453;50.810;12.540;2024-03-08T09:27:27;7.20;99.90
20590;DHT22;10453;50.810;12.540;2024-03-08T09:31:44;7.20;99.90
20590;DHT22;10453;50.810;12.540;2024-03-08T09:36:04;7.40;99.90
20590;DHT22;10453;50.810;12.540;2024-03-08T09:40:21;7.60;99.90
20590;DHT22;10453;50.810;12.540;2024-03-08T09:44:47;7.90;99.90
20590;DHT22;10453;50.810;12.540;2024-03-08T09:49:05;8.10;99.90
20590;DHT22;10453;50.810;12.540;2024-03-08T09:53:22;8.30;99.90
20590;DHT22;10453;50.810;12.540;2024-03-08T09:57:40;8.30;99.90
20590;DHT22;10453;50.810;12.540;2024-03-08T10:01:59;8.70;99.90
20590;DHT22;10453;50.810;12.540;2024-03-08T10:06:23;9.00;99.90
20590;DHT22;10453;50.810;12.540;2024-03-08T10:10:41;9.20;99.90
20590;DHT22;10453;50.810;12.540;2024-03-08T10:14:59;9.30;99.90
20590;DHT22;10453;50.810;12.540;2024-03-08T10:19:16;9.70;99.90
20590;DHT22;10453;50.810;12.540;2024-03-08T10:23:34;9.80;99.90
20590;DHT22;10453;50.810;12.540;2024-03-08T10:27:52;10.10;99.90
20590;DHT22;10453;50.810;12.540;2024-03-08T10:32:09;10.50;99.90
20590;DHT22;10453;50.810;12.540;2024-03-08T10:36:28;10.70;99.90
20590;DHT22;10453;50.810;12.540;2024-03-08T10:40:45;11.20;99.90
20590;DHT22;10453;50.810;12.540;2024-03-08T10:45:10;11.60;99.90
20590;DHT22;10453;50.810;12.540;2024-03-08T10:49:32;11.80;99.70
20590;DHT22;10453;50.810;12.540;2024-03-08T10:53:52;11.90;99.90
20590;DHT22;10453;50.810;12.540;2024-03-08T10:58:12;12.10;94.80
20590;DHT22;10453;50.810;12.540;2024-03-08T11:02:30;12.00;95.60
20590;DHT22;10453;50.810;12.540;2024-03-08T11:06:48;12.80;92.20
20590;DHT22;10453;50.810;12.540;2024-03-08T11:11:26;12.80;91.30
20590;DHT22;10453;50.810;12.540;2024-03-08T11:15:52;13.10;90.10
20590;DHT22;10453;50.810;12.540;2024-03-08T11:20:14;13.30;92.00
20590;DHT22;10453;50.810;12.540;2024-03-08T11:24:38;13.80;87.80
20590;DHT22;10453;50.810;12.540;2024-03-08T11:33:46;12.90;85.20
20590;DHT22;10453;50.810;12.540;2024-03-08T11:38:04;13.20;86.50
20590;DHT22;10453;50.810;12.540;2024-03-08T11:42:22;14.10;85.50
20590;DHT22;10453;50.810;12.540;2024-03-08T11:46:39;14.10;77.60
20590;DHT22;10453;50.810;12.540;2024-03-08T11:51:01;13.50;81.50
20590;DHT22;10453;50.810;12.540;2024-03-08T11:55:21;13.40;79.10
20590;DHT22;10453;50.810;12.540;2024-03-08T11:59:39;13.50;78.50
20590;DHT22;10453;50.810;12.540;2024-03-08T12:03:57;14.30;79.50
20590;DHT22;10453;50.810;12.540;2024-03-08T12:08:17;14.50;76.60
20590;DHT22;10453;50.810;12.540;2024-03-08T12:12:35;14.50;75.90
20590;DHT22;10453;50.810;12.540;2024-03-08T12:16:52;13.90;79.50
20590;DHT22;10453;50.810;12.540;2024-03-08T12:21:11;13.90;77.00
20590;DHT22;10453;50.810;12.540;2024-03-08T12:25:33;14.10;74.50
20590;DHT22;10453;50.810;12.540;2024-03-08T12:29:53;14.40;74.20
20590;DHT22;10453;50.810;12.540;2024-03-08T12:34:12;14.90;74.40
20590;DHT22;10453;50.810;12.540;2024-03-08T12:38:31;14.50;71.20
20590;DHT22;10453;50.810;12.540;2024-03-08T12:42:49;14.30;72.60
20590;DHT22;10453;50.810;12.540;2024-03-08T12:47:06;14.40;69.40
20590;DHT22;10453;50.810;12.540;2024-03-08T12:51:25;14.30;70.00
20590;DHT22;10453;50.810;12.540;2024-03-08T12:55:42;14.30;67.80
20590;DHT22;10453;50.810;12.540;2024-03-08T13:00:00;14.40;69.50
20590;DHT22;10453;50.810;12.540;2024-03-08T13:04:19;14.30;67.80
20590;DHT22;10453;50.810;12.540;2024-03-08T13:08:38;14.30;67.60
20590;DHT22;10453;50.810;12.540;2024-03-08T13:12:56;14.50;66.10
20590;DHT22;10453;50.810;12.540;2024-03-08T13:17:14;14.20;66.50
20590;DHT22;10453;50.810;12.540;2024-03-08T13:21:32;13.70;65.90
20590;DHT22;10453;50.810;12.540;2024-03-08T13:25:50;13.40;66.90
20590;DHT22;10453;50.810;12.540;2024-03-08T13:30:11;13.30;66.10
20590;DHT22;10453;50.810;12.540;2024-03-08T13:34:35;12.40;68.40
20590;DHT22;10453;50.810;12.540;2024-03-08T13:38:52;11.50;75.30
20590;DHT22;10453;50.810;12.540;2024-03-08T13:43:10;11.20;79.20
20590;DHT22;10453;50.810;12.540;2024-03-08T13:47:27;11.20;83.90
20590;DHT22;10453;50.810;12.540;2024-03-08T13:51:45;11.20;84.70
20590;DHT22;10453;50.810;12.540;2024-03-08T13:56:03;11.20;87.00
20590;DHT22;10453;50.810;12.540;2024-03-08T14:00:21;11.20;90.30
20590;DHT22;10453;50.810;12.540;2024-03-08T14:04:40;11.10;90.60
20590;DHT22;10453;50.810;12.540;2024-03-08T14:08:59;11.30;91.80
20590;DHT22;10453;50.810;12.540;2024-03-08T14:13:16;11.10;92.80
20590;DHT22;10453;50.810;12.540;2024-03-08T14:17:36;11.00;93.10
20590;DHT22;10453;50.810;12.540;2024-03-08T14:21:53;10.90;94.30
20590;DHT22;10453;50.810;12.540;2024-03-08T14:26:10;10.70;96.40
20590;DHT22;10453;50.810;12.540;2024-03-08T14:30:28;10.60;97.70
20590;DHT22;10453;50.810;12.540;2024-03-08T14:34:53;10.70;97.60
20590;DHT22;10453;50.810;12.540;2024-03-08T14:39:12;10.50;99.40
20590;DHT22;10453;50.810;12.540;2024-03-08T14:43:29;10.50;98.10
20590;DHT22;10453;50.810;12.540;2024-03-08T14:47:50;10.40;99.90
20590;DHT22;10453;50.810;12.540;2024-03-08T14:52:08;10.30;99.90
20590;DHT22;10453;50.810;12.540;2024-03-08T14:56:45;10.30;99.90
20590;DHT22;10453;50.810;12.540;2024-03-08T15:01:02;10.20;99.90
20590;DHT22;10453;50.810;12.540;2024-03-08T15:05:20;10.10;99.90
20590;DHT22;10453;50.810;12.540;2024-03-08T15:09:43;10.00;99.90
20590;DHT22;10453;50.810;12.540;2024-03-08T15:14:01;10.00;99.90
20590;DHT22;10453;50.810;12.540;2024-03-08T15:18:19;9.90;99.90
20590;DHT22;10453;50.810;12.540;2024-03-08T15:22:36;9.70;99.90
20590;DHT22;10453;50.810;12.540;2024-03-08T15:26:56;9.70;99.90
20590;DHT22;10453;50.810;12.540;2024-03-08T15:31:14;9.70;99.90
20590;DHT22;10453;50.810;12.540;2024-03-08T15:35:32;9.50;99.90
20590;DHT22;10453;50.810;12.540;2024-03-08T15:39:50;9.50;99.90
20590;DHT22;10453;50.810;12.540;2024-03-08T15:44:07;9.30;99.90
20590;DHT22;10453;50.810;12.540;2024-03-08T15:48:27;9.20;99.90
20590;DHT22;10453;50.810;12.540;2024-03-08T15:52:45;9.10;99.90
20590;DHT22;10453;50.810;12.540;2024-03-08T15:57:04;9.00;99.90
20590;DHT22;10453;50.810;12.540;2024-03-08T16:01:25;8.90;99.90
20590;DHT22;10453;50.810;12.540;2024-03-08T16:05:43;8.80;99.90
20590;DHT22;10453;50.810;12.540;2024-03-08T16:10:03;8.70;99.90
20590;DHT22;10453;50.810;12.540;2024-03-08T16:14:21;8.70;99.90
20590;DHT22;10453;50.810;12.540;2024-03-08T16:18:39;8.60;99.90
20590;DHT22;10453;50.810;12.540;2024-03-08T16:22:56;8.50;99.90
20590;DHT22;10453;50.810;12.540;2024-03-08T16:27:14;8.50;99.90
20590;DHT22;10453;50.810;12.540;2024-03-08T16:31:33;8.40;99.90
20590;DHT22;10453;50.810;12.540;2024-03-08T16:35:51;8.30;99.90
20590;DHT22;10453;50.810;12.540;2024-03-08T16:40:09;8.10;99.90
20590;DHT22;10453;50.810;12.540;2024-03-08T16:44:32;8.00;99.90
20590;DHT22;10453;50.810;12.540;2024-03-08T16:48:49;7.80;99.90
20590;DHT22;10453;50.810;12.540;2024-03-08T16:53:07;7.60;99.90
20590;DHT22;10453;50.810;12.540;2024-03-08T16:57:24;7.60;99.90
20590;DHT22;10453;50.810;12.540;2024-03-08T17:01:42;7.50;99.90
20590;DHT22;10453;50.810;12.540;2024-03-08T17:06:00;7.30;99.90
20590;DHT22;10453;50.810;12.540;2024-03-08T17:10:24;7.00;99.90
20590;DHT22;10453;50.810;12.540;2024-03-08T17:14:42;6.70;99.90
20590;DHT22;10453;50.810;12.540;2024-03-08T17:19:00;6.50;99.90
20590;DHT22;10453;50.810;12.540;2024-03-08T17:23:19;6.30;99.90
20590;DHT22;10453;50.810;12.540;2024-03-08T17:27:38;6.20;99.90
20590;DHT22;10453;50.810;12.540;2024-03-08T17:31:55;6.10;99.90
20590;DHT22;10453;50.810;12.540;2024-03-08T17:36:13;5.80;99.90
20590;DHT22;10453;50.810;12.540;2024-03-08T17:40:33;5.70;99.90
20590;DHT22;10453;50.810;12.540;2024-03-08T17:44:53;5.50;99.90
20590;DHT22;10453;50.810;12.540;2024-03-08T17:49:11;5.50;99.90
20590;DHT22;10453;50.810;12.540;2024-03-08T17:53:29;5.40;99.90
20590;DHT22;10453;50.810;12.540;2024-03-08T17:57:48;5.40;99.90
20590;DHT22;10453;50.810;12.540;2024-03-08T18:02:06;5.40;99.90
20590;DHT22;10453;50.810;12.540;2024-03-08T18:06:23;5.30;99.90
20590;DHT22;10453;50.810;12.540;2024-03-08T18:10:43;5.30;99.90
20590;DHT22;10453;50.810;12.540;2024-03-08T18:15:01;5.20;99.90
20590;DHT22;10453;50.810;12.540;2024-03-08T18:19:18;5.10;99.90
20590;DHT22;10453;50.810;12.540;2024-03-08T18:23:36;5.10;99.90
20590;DHT22;10453;50.810;12.540;2024-03-08T18:27:55;5.00;99.90
20590;DHT22;10453;50.810;12.540;2024-03-08T18:32:15;5.00;99.90
20590;DHT22;10453;50.810;12.540;2024-03-08T18:36:32;5.00;99.90
20590;DHT22;10453;50.810;12.540;2024-03-08T18:40:50;4.90;99.90
20590;DHT22;10453;50.810;12.540;2024-03-08T18:45:10;4.80;99.90
20590;DHT22;10453;50.810;12.540;2024-03-08T18:49:28;4.70;99.90
20590;DHT22;10453;50.810;12.540;2024-03-08T18:53:45;4.80;99.90
20590;DHT22;10453;50.810;12.540;2024-03-08T18:58:02;4.80;99.90
20590;DHT22;10453;50.810;12.540;2024-03-08T19:02:20;4.90;99.90
20590;DHT22;10453;50.810;12.540;2024-03-08T19:06:40;4.90;99.90
20590;DHT22;10453;50.810;12.540;2024-03-08T19:10:59;4.90;99.90
20590;DHT22;10453;50.810;12.540;2024-03-08T19:15:17;4.70;99.90
20590;DHT22;10453;50.810;12.540;2024-03-08T19:19:37;4.90;99.90
20590;DHT22;10453;50.810;12.540;2024-03-08T19:23:55;5.20;99.90
20590;DHT22;10453;50.810;12.540;2024-03-08T19:28:12;5.20;99.90
20590;DHT22;10453;50.810;12.540;2024-03-08T19:32:31;5.20;99.90
20590;DHT22;10453;50.810;12.540;2024-03-08T19:36:48;5.10;99.90
20590;DHT22;10453;50.810;12.540;2024-03-08T19:41:05;5.10;99.90
20590;DHT22;10453;50.810;12.540;2024-03-08T19:45:24;5.10;99.90
20590;DHT22;10453;50.810;12.540;2024-03-08T19:49:43;5.10;99.90
20590;DHT22;10453;50.810;12.540;2024-03-08T19:54:01;5.20;99.90
20590;DHT22;10453;50.810;12.540;2024-03-08T19:58:18;5.20;99.90
20590;DHT22;10453;50.810;12.540;2024-03-08T20:02:38;5.10;99.90
20590;DHT22;10453;50.810;12.540;2024-03-08T20:06:57;5.10;99.90
20590;DHT22;10453;50.810;12.540;2024-03-08T20:11:15;5.00;99.90
20590;DHT22;10453;50.810;12.540;2024-03-08T20:15:33;5.10;99.90
20590;DHT22;10453;50.810;12.540;2024-03-08T20:19:51;5.20;99.90
20590;DHT22;10453;50.810;12.540;2024-03-08T20:24:10;5.20;99.90
20590;DHT22;10453;50.810;12.540;2024-03-08T20:28:28;5.00;99.90
20590;DHT22;10453;50.810;12.540;2024-03-08T20:37:11;4.70;99.90
20590;DHT22;10453;50.810;12.540;2024-03-08T20:41:30;4.50;99.90
20590;DHT22;10453;50.810;12.540;2024-03-08T20:45:48;4.30;99.90
20590;DHT22;10453;50.810;12.540;2024-03-08T20:50:07;4.00;99.90
20590;DHT22;10453;50.810;12.540;2024-03-08T20:54:25;3.90;99.90
20590;DHT22;10453;50.810;12.540;2024-03-08T20:58:42;4.00;99.90
20590;DHT22;10453;50.810;12.540;2024-03-08T21:03:05;3.90;99.90
20590;DHT22;10453;50.810;12.540;2024-03-08T21:07:22;3.80;99.90
20590;DHT22;10453;50.810;12.540;2024-03-08T21:11:40;3.90;99.90
20590;DHT22;10453;50.810;12.540;2024-03-08T21:15:57;3.80;99.90
20590;DHT22;10453;50.810;12.540;2024-03-08T21:20:17;3.80;99.90
20590;DHT22;10453;50.810;12.540;2024-03-08T21:24:34;3.90;99.90
20590;DHT22;10453;50.810;12.540;2024-03-08T21:28:52;3.90;99.90
20590;DHT22;10453;50.810;12.540;2024-03-08T21:33:09;3.90;99.90
20590;DHT22;10453;50.810;12.540;2024-03-08T21:37:31;4.00;99.90
20590;DHT22;10453;50.810;12.540;2024-03-08T21:41:48;4.00;99.90
20590;DHT22;10453;50.810;12.540;2024-03-08T21:46:06;3.80;99.90
20590;DHT22;10453;50.810;12.540;2024-03-08T21:50:23;3.80;99.90
20590;DHT22;10453;50.810;12.540;2024-03-08T21:54:40;3.60;99.90
20590;DHT22;10453;50.810;12.540;2024-03-08T21:58:58;3.40;99.90
20590;DHT22;10453;50.810;12.540;2024-03-08T22:03:18;3.50;99.90
20590;DHT22;10453;50.810;12.540;2024-03-08T22:07:38;3.70;99.90
20590;DHT22;10453;50.810;12.540;2024-03-08T22:11:56;3.60;99.90
20590;DHT22;10453;50.810;12.540;2024-03-08T22:16:14;3.50;99.90
20590;DHT22;10453;50.810;12.540;2024-03-08T22:20:31;3.50;99.90
20590;DHT22;10453;50.810;12.540;2024-03-08T22:24:50;3.80;99.90
20590;DHT22;10453;50.810;12.540;2024-03-08T22:29:11;3.90;99.90
20590;DHT22;10453;50.810;12.540;2024-03-08T22:33:28;3.90;99.90
20590;DHT22;10453;50.810;12.540;2024-03-08T22:37:47;3.90;99.90
20590;DHT22;10453;50.810;12.540;2024-03-08T22:42:05;3.60;99.90
20590;DHT22;10453;50.810;12.540;2024-03-08T22:46:25;3.50;99.90
20590;DHT22;10453;50.810;12.540;2024-03-08T22:50:42;3.70;99.90
20590;DHT22;10453;50.810;12.540;2024-03-08T22:55:00;3.60;99.90
20590;DHT22;10453;50.810;12.540;2024-03-08T22:59:17;3.90;99.90
20590;DHT22;10453;50.810;12.540;2024-03-08T23:03:38;3.80;99.90
20590;DHT22;10453;50.810;12.540;2024-03-08T23:07:55;3.70;99.90
20590;DHT22;10453;50.810;12.540;2024-03-08T23:12:18;3.70;99.90
20590;DHT22;10453;50.810;12.540;2024-03-08T23:16:36;3.90;99.90
20590;DHT22;10453;50.810;12.540;2024-03-08T23:20:54;3.90;99.90
20590;DHT22;10453;50.810;12.540;2024-03-08T23:25:13;3.80;99.90
20590;DHT22;10453;50.810;12.540;2024-03-08T23:29:33;3.70;99.90
20590;DHT22;10453;50.810;12.540;2024-03-08T23:33:51;3.90;99.90
20590;DHT22;10453;50.810;12.540;2024-03-08T23:38:08;3.80;99.90
20590;DHT22;10453;50.810;12.540;2024-03-08T23:42:27;3.50;99.90
20590;DHT22;10453;50.810;12.540;2024-03-08T23:46:45;3.60;99.90
20590;DHT22;10453;50.810;12.540;2024-03-08T23:51:04;3.60;99.90
20590;DHT22;10453;50.810;12.540;2024-03-08T23:55:23;3.80;99.90
20590;DHT22;10453;50.810;12.540;2024-03-08T23:59:44;3.80;99.90
